createdAt,value
2017-09-14T00:01:41.551Z,99.90
2017-09-14T00:04:09.835Z,99.90
2017-09-14T00:06:38.932Z,99.90
2017-09-14T00:09:08.036Z,99.90
2017-09-14T00:11:36.327Z,99.90
2017-09-14T00:14:06.186Z,99.90
2017-09-14T00:16:34.472Z,99.90
2017-09-14T00:19:02.754Z,99.90
2017-09-14T00:21:31.082Z,99.90
2017-09-14T00:23:59.355Z,99.90
2017-09-14T00:26:27.632Z,99.90
2017-09-14T00:28:57.130Z,99.90
2017-09-14T00:31:25.814Z,99.90
2017-09-14T00:33:55.242Z,99.90
2017-09-14T00:36:24.336Z,99.90
2017-09-14T00:38:53.743Z,99.90
2017-09-14T00:41:22.014Z,99.90
2017-09-14T00:43:50.411Z,99.90
2017-09-14T00:46:19.454Z,99.90
2017-09-14T00:48:47.731Z,99.90
2017-09-14T00:51:16.100Z,99.90
2017-09-14T00:53:45.139Z,99.90
2017-09-14T00:56:14.179Z,99.90
2017-09-14T00:58:44.024Z,99.90
2017-09-14T01:01:13.071Z,99.90
2017-09-14T01:03:42.482Z,99.90
2017-09-14T01:06:11.599Z,99.90
2017-09-14T01:08:40.648Z,99.90
2017-09-14T01:11:08.987Z,99.90
2017-09-14T01:13:37.731Z,99.90
2017-09-14T01:18:35.580Z,99.90
2017-09-14T01:23:34.127Z,99.90
2017-09-14T01:26:02.407Z,99.90
2017-09-14T01:28:31.495Z,99.90
2017-09-14T01:30:59.787Z,99.90
2017-09-14T01:33:28.063Z,99.90
2017-09-14T01:35:57.910Z,99.90
2017-09-14T01:40:56.115Z,99.90
2017-09-14T01:43:24.436Z,99.90
2017-09-14T01:45:54.220Z,99.90
2017-09-14T01:48:22.494Z,99.90
2017-09-14T01:50:51.582Z,99.90
2017-09-14T01:53:20.618Z,99.90
2017-09-14T01:55:48.891Z,99.90
2017-09-14T01:58:17.235Z,99.90
2017-09-14T02:00:45.511Z,99.90
2017-09-14T02:03:13.784Z,99.90
2017-09-14T02:05:42.128Z,99.90
2017-09-14T02:08:10.419Z,99.90
2017-09-14T02:13:09.065Z,99.90
2017-09-14T02:18:07.626Z,99.90
2017-09-14T02:23:05.912Z,99.90
2017-09-14T02:25:34.191Z,99.90
2017-09-14T02:30:33.171Z,99.90
2017-09-14T02:33:02.583Z,99.90
2017-09-14T02:35:30.932Z,99.90
2017-09-14T02:37:59.605Z,99.90
2017-09-14T02:42:57.467Z,99.90
2017-09-14T02:45:25.752Z,99.90
2017-09-14T02:47:54.030Z,99.90
2017-09-14T02:50:23.064Z,99.90
2017-09-14T02:57:51.520Z,99.90
2017-09-14T03:02:49.695Z,99.90
2017-09-14T03:05:18.024Z,99.90
2017-09-14T03:07:46.302Z,99.90
2017-09-14T03:10:16.091Z,99.90
2017-09-14T03:12:45.236Z,99.90
2017-09-14T03:15:14.276Z,99.90
2017-09-14T03:17:42.572Z,99.90
2017-09-14T03:20:10.947Z,99.90
2017-09-14T03:22:39.236Z,99.90
2017-09-14T03:27:37.499Z,99.90
2017-09-14T03:30:06.952Z,99.90
2017-09-14T03:32:36.070Z,99.90
2017-09-14T03:35:04.391Z,99.90
2017-09-14T03:37:33.441Z,99.90
2017-09-14T03:40:01.723Z,99.90
2017-09-14T03:42:30.056Z,99.90
2017-09-14T03:47:27.826Z,99.90
2017-09-14T03:49:56.181Z,99.90
2017-09-14T03:52:24.479Z,99.90
2017-09-14T03:54:52.763Z,99.90
2017-09-14T03:57:21.091Z,99.90
2017-09-14T03:59:49.371Z,99.90
2017-09-14T04:02:17.651Z,99.90
2017-09-14T04:04:47.111Z,99.90
2017-09-14T04:07:15.392Z,99.90
2017-09-14T04:09:43.667Z,99.90
2017-09-14T04:12:12.754Z,99.90
2017-09-14T04:14:41.826Z,99.90
2017-09-14T04:17:10.125Z,99.90
2017-09-14T04:19:39.232Z,99.90
2017-09-14T04:22:07.526Z,99.90
2017-09-14T04:24:35.837Z,99.90
2017-09-14T04:27:04.179Z,99.90
2017-09-14T04:29:32.460Z,99.90
2017-09-14T04:32:01.867Z,99.90
2017-09-14T04:34:30.211Z,99.90
2017-09-14T04:36:58.496Z,99.90
2017-09-14T04:39:26.780Z,99.90
2017-09-14T04:41:55.128Z,99.90
2017-09-14T04:44:23.411Z,99.90
2017-09-14T04:46:52.827Z,99.90
2017-09-14T04:49:21.161Z,99.90
2017-09-14T04:51:49.438Z,99.90
2017-09-14T04:54:18.859Z,99.90
2017-09-14T04:56:47.183Z,99.90
2017-09-14T05:01:45.364Z,99.90
2017-09-14T05:04:13.718Z,99.90
2017-09-14T05:09:11.528Z,99.90
2017-09-14T05:11:40.653Z,99.90
2017-09-14T05:14:09.720Z,99.90
2017-09-14T05:19:08.006Z,99.90
2017-09-14T05:21:36.296Z,99.90
2017-09-14T05:24:04.570Z,99.90
2017-09-14T05:26:35.171Z,99.90
2017-09-14T05:31:32.955Z,99.90
2017-09-14T05:34:01.279Z,99.90
2017-09-14T05:36:29.562Z,99.90
2017-09-14T05:38:57.848Z,99.90
2017-09-14T05:41:27.359Z,99.90
2017-09-14T05:46:25.181Z,99.90
2017-09-14T05:48:53.507Z,99.90
2017-09-14T05:51:21.791Z,99.90
2017-09-14T05:53:50.069Z,99.90
2017-09-14T05:56:18.383Z,99.90
2017-09-14T05:58:49.607Z,99.90
2017-09-14T06:01:17.951Z,99.90
2017-09-14T06:03:47.026Z,99.90
2017-09-14T06:08:44.856Z,99.90
2017-09-14T06:11:13.198Z,99.90
2017-09-14T06:13:42.251Z,99.90
2017-09-14T06:16:11.338Z,99.90
2017-09-14T06:18:39.684Z,99.90
2017-09-14T06:21:08.769Z,99.90
2017-09-14T06:23:37.404Z,99.90
2017-09-14T06:26:06.890Z,99.90
2017-09-14T06:28:35.175Z,99.90
2017-09-14T06:31:03.483Z,99.90
2017-09-14T06:33:31.805Z,99.90
2017-09-14T06:38:29.621Z,99.90
2017-09-14T06:40:57.934Z,99.90
2017-09-14T06:43:26.215Z,99.90
2017-09-14T06:45:54.549Z,99.90
2017-09-14T06:48:22.859Z,99.90
2017-09-14T06:50:51.135Z,99.90
2017-09-14T06:53:20.966Z,99.90
2017-09-14T06:55:49.284Z,99.90
2017-09-14T06:58:17.555Z,99.90
2017-09-14T07:03:16.543Z,99.90
2017-09-14T07:08:14.757Z,99.90
2017-09-14T07:10:43.097Z,99.90
2017-09-14T07:13:11.423Z,99.90
2017-09-14T07:18:10.204Z,99.90
2017-09-14T07:20:39.267Z,99.90
2017-09-14T07:23:07.661Z,99.90
2017-09-14T07:25:35.983Z,99.90
2017-09-14T07:28:04.259Z,99.90
2017-09-14T07:30:32.568Z,99.90
2017-09-14T07:33:02.387Z,99.90
2017-09-14T07:35:30.667Z,99.90
2017-09-14T07:38:00.112Z,99.90
2017-09-14T07:40:29.186Z,99.90
2017-09-14T07:42:58.227Z,99.90
2017-09-14T07:45:26.547Z,99.90
2017-09-14T07:47:54.876Z,99.90
2017-09-14T07:50:23.920Z,99.90
2017-09-14T07:57:51.296Z,99.90
2017-09-14T08:00:21.383Z,99.90
2017-09-14T08:02:49.700Z,99.90
2017-09-14T08:05:17.980Z,99.90
2017-09-14T08:07:46.288Z,99.90
2017-09-14T08:10:16.114Z,99.90
2017-09-14T08:12:44.391Z,99.90
2017-09-14T08:17:43.455Z,99.90
2017-09-14T08:20:12.940Z,99.90
2017-09-14T08:22:41.288Z,99.90
2017-09-14T08:25:10.380Z,99.90
2017-09-14T08:27:39.467Z,99.90
2017-09-14T08:30:07.824Z,99.90
2017-09-14T08:32:36.563Z,99.90
2017-09-14T08:37:34.838Z,99.90
2017-09-14T08:42:33.059Z,99.90
2017-09-14T08:45:01.388Z,99.90
2017-09-14T08:47:29.703Z,99.90
2017-09-14T08:49:57.974Z,99.90
2017-09-14T08:57:26.477Z,99.90
2017-09-14T08:59:55.964Z,99.90
2017-09-14T09:02:25.070Z,99.90
2017-09-14T09:04:54.109Z,99.90
2017-09-14T09:07:22.421Z,99.90
2017-09-14T09:09:52.260Z,99.90
2017-09-14T09:14:50.463Z,99.90
2017-09-14T09:17:18.775Z,99.90
2017-09-14T09:22:16.599Z,99.90
2017-09-14T09:24:44.910Z,99.90
2017-09-14T09:27:13.228Z,99.90
2017-09-14T09:29:41.600Z,99.90
2017-09-14T09:34:40.212Z,99.90
2017-09-14T09:37:08.559Z,99.90
2017-09-14T09:39:38.418Z,99.90
2017-09-14T09:42:06.766Z,99.90
2017-09-14T09:44:37.568Z,99.90
2017-09-14T09:47:05.905Z,99.90
2017-09-14T09:49:34.187Z,99.90
2017-09-14T09:52:02.491Z,99.90
2017-09-14T09:54:30.819Z,99.90
2017-09-14T09:57:00.235Z,99.90
2017-09-14T09:59:28.544Z,99.90
2017-09-14T10:04:26.762Z,99.90
2017-09-14T10:06:55.083Z,99.90
2017-09-14T10:09:23.391Z,99.90
2017-09-14T10:11:51.655Z,99.90
2017-09-14T10:14:19.958Z,99.90
2017-09-14T10:16:48.271Z,99.90
2017-09-14T10:19:16.545Z,99.90
2017-09-14T10:24:14.395Z,99.90
2017-09-14T10:26:42.680Z,99.90
2017-09-14T10:29:11.798Z,99.90
2017-09-14T10:31:40.130Z,98.80
2017-09-14T10:34:09.948Z,97.40
2017-09-14T10:36:38.273Z,99.00
2017-09-14T10:39:08.407Z,99.90
2017-09-14T10:41:36.701Z,95.90
2017-09-14T10:44:05.013Z,96.30
2017-09-14T10:46:34.480Z,93.80
2017-09-14T10:49:02.761Z,93.00
2017-09-14T10:54:01.386Z,92.30
2017-09-14T10:56:29.655Z,94.10
2017-09-14T10:58:57.971Z,96.60
2017-09-14T11:01:27.799Z,98.40
2017-09-14T11:06:26.404Z,99.90
2017-09-14T11:08:54.738Z,99.90
2017-09-14T11:11:23.771Z,99.90
2017-09-14T11:16:22.019Z,99.90
2017-09-14T11:18:50.295Z,99.90
2017-09-14T11:21:20.103Z,99.90
2017-09-14T11:23:48.411Z,99.90
2017-09-14T11:26:17.083Z,99.90
2017-09-14T11:28:45.387Z,99.90
2017-09-14T11:33:43.211Z,99.90
2017-09-14T11:36:11.526Z,99.90
2017-09-14T11:38:39.849Z,99.90
2017-09-14T11:41:09.651Z,99.90
2017-09-14T11:46:08.314Z,99.90
2017-09-14T11:48:39.074Z,99.10
2017-09-14T11:51:07.356Z,99.90
2017-09-14T11:53:35.669Z,98.40
2017-09-14T11:58:34.252Z,97.20
2017-09-14T12:01:04.062Z,96.10
2017-09-14T12:03:32.371Z,95.60
2017-09-14T12:06:00.658Z,95.70
2017-09-14T12:08:29.367Z,95.00
2017-09-14T12:10:58.443Z,92.20
2017-09-14T12:13:26.723Z,91.80
2017-09-14T12:15:55.062Z,93.00
2017-09-14T12:18:23.364Z,92.90
2017-09-14T12:20:51.643Z,92.40
2017-09-14T12:23:19.961Z,92.20
2017-09-14T12:25:49.066Z,91.80
2017-09-14T12:28:18.087Z,92.30
2017-09-14T12:30:47.181Z,90.50
2017-09-14T12:33:15.487Z,90.70
2017-09-14T12:35:43.764Z,90.10
2017-09-14T12:38:12.096Z,90.90
2017-09-14T12:40:41.943Z,92.20
2017-09-14T12:43:11.752Z,91.30
2017-09-14T12:45:40.106Z,92.50
2017-09-14T12:48:09.218Z,92.90
2017-09-14T12:50:38.273Z,91.90
2017-09-14T12:55:37.639Z,91.60
2017-09-14T12:58:06.817Z,92.50
2017-09-14T13:00:35.122Z,92.80
2017-09-14T13:03:03.439Z,91.70
2017-09-14T13:05:32.114Z,90.60
2017-09-14T13:08:01.207Z,90.70
2017-09-14T13:10:31.040Z,91.10
2017-09-14T13:12:59.320Z,91.00
2017-09-14T13:15:27.640Z,91.60
2017-09-14T13:17:57.472Z,91.60
2017-09-14T13:20:25.778Z,92.80
2017-09-14T13:22:54.087Z,92.50
2017-09-14T13:25:22.403Z,92.80
2017-09-14T13:27:50.672Z,92.50
2017-09-14T13:30:19.763Z,92.00
2017-09-14T13:32:48.880Z,92.50
2017-09-14T13:35:17.139Z,92.80
2017-09-14T13:40:14.986Z,91.80
2017-09-14T13:45:13.208Z,92.90
2017-09-14T13:50:11.824Z,93.40
2017-09-14T13:52:40.911Z,93.90
2017-09-14T13:55:09.224Z,93.60
2017-09-14T13:57:38.292Z,94.10
2017-09-14T14:00:07.408Z,95.00
2017-09-14T14:02:35.720Z,94.90
2017-09-14T14:07:33.547Z,97.60
2017-09-14T14:10:01.852Z,99.50
2017-09-14T14:12:30.129Z,99.90
2017-09-14T14:17:28.365Z,99.90
2017-09-14T14:19:56.655Z,99.90
2017-09-14T14:22:24.980Z,99.90
2017-09-14T14:24:53.307Z,99.90
2017-09-14T14:27:21.578Z,99.90
2017-09-14T14:29:50.664Z,99.90
2017-09-14T14:32:18.962Z,99.90
2017-09-14T14:34:48.015Z,99.90
2017-09-14T14:37:17.116Z,99.90
2017-09-14T14:39:45.424Z,99.90
2017-09-14T14:42:15.207Z,99.90
2017-09-14T14:44:43.519Z,99.90
2017-09-14T14:47:11.893Z,99.90
2017-09-14T14:49:40.198Z,99.90
2017-09-14T14:52:08.524Z,99.90
2017-09-14T14:54:36.875Z,99.90
2017-09-14T14:57:05.917Z,99.90
2017-09-14T14:59:34.234Z,99.90
2017-09-14T15:02:02.551Z,99.90
2017-09-14T15:04:30.826Z,99.90
2017-09-14T15:06:59.135Z,99.90
2017-09-14T15:11:57.358Z,99.90
2017-09-14T15:14:25.685Z,99.90
2017-09-14T15:16:54.771Z,99.90
2017-09-14T15:19:23.064Z,99.90
2017-09-14T15:21:51.379Z,99.90
2017-09-14T15:24:21.196Z,99.90
2017-09-14T15:26:49.472Z,99.90
2017-09-14T15:29:17.781Z,99.90
2017-09-14T15:31:47.223Z,99.90
2017-09-14T15:34:15.497Z,99.90
2017-09-14T15:36:43.807Z,99.90
2017-09-14T15:39:17.863Z,99.90
2017-09-14T15:41:46.178Z,99.90
2017-09-14T15:44:20.212Z,99.90
2017-09-14T15:46:48.520Z,99.90
2017-09-14T15:49:22.461Z,99.90
2017-09-14T15:51:52.954Z,99.90
2017-09-14T15:54:22.377Z,99.90
2017-09-14T15:56:50.722Z,99.90
2017-09-14T16:01:48.935Z,99.90
2017-09-14T16:04:17.227Z,99.90
2017-09-14T16:06:45.572Z,99.90
2017-09-14T16:09:13.847Z,99.90
2017-09-14T16:11:43.343Z,99.90
2017-09-14T16:14:11.741Z,99.90
2017-09-14T16:16:40.051Z,99.90
2017-09-14T16:19:08.372Z,99.90
2017-09-14T16:21:36.731Z,99.90
2017-09-14T16:24:05.003Z,99.90
2017-09-14T16:26:34.415Z,99.90
2017-09-14T16:29:02.761Z,99.90
2017-09-14T16:31:31.048Z,99.90
2017-09-14T16:33:59.390Z,99.90
2017-09-14T16:36:29.225Z,99.90
2017-09-14T16:38:57.511Z,99.90
2017-09-14T16:41:26.555Z,99.90
2017-09-14T16:43:54.900Z,99.90
2017-09-14T16:46:24.679Z,99.90
2017-09-14T16:48:52.966Z,99.90
2017-09-14T16:51:21.311Z,99.90
2017-09-14T16:53:49.594Z,99.90
2017-09-14T16:56:17.880Z,99.90
2017-09-14T16:58:46.243Z,99.90
2017-09-14T17:01:14.551Z,99.90
2017-09-14T17:03:44.347Z,99.90
2017-09-14T17:06:14.791Z,99.90
2017-09-14T17:08:44.232Z,99.90
2017-09-14T17:11:12.922Z,99.90
2017-09-14T17:13:42.796Z,99.90
2017-09-14T17:18:41.024Z,99.90
2017-09-14T17:21:10.846Z,99.90
2017-09-14T17:23:39.559Z,99.90
2017-09-14T17:26:08.623Z,99.90
2017-09-14T17:28:38.148Z,99.90
2017-09-14T17:31:07.236Z,99.90
2017-09-14T17:33:35.531Z,99.90
2017-09-14T17:36:04.578Z,99.90
2017-09-14T17:38:32.863Z,99.90
2017-09-14T17:41:01.151Z,99.90
2017-09-14T17:43:29.502Z,99.90
2017-09-14T17:45:57.837Z,99.90
2017-09-14T17:48:26.129Z,99.90
2017-09-14T17:50:54.459Z,99.90
2017-09-14T17:53:22.739Z,99.90
2017-09-14T17:55:51.019Z,99.90
2017-09-14T17:58:20.110Z,99.90
2017-09-14T18:00:49.154Z,99.90
2017-09-14T18:03:18.199Z,99.90
2017-09-14T18:05:46.544Z,99.90
2017-09-14T18:08:16.323Z,99.90
2017-09-14T18:10:44.603Z,99.90
2017-09-14T18:13:12.939Z,99.90
2017-09-14T18:15:41.216Z,99.90
2017-09-14T18:18:09.510Z,99.90
2017-09-14T18:20:39.000Z,99.90
2017-09-14T18:23:07.288Z,99.90
2017-09-14T18:25:35.573Z,99.90
2017-09-14T18:28:03.943Z,99.90
2017-09-14T18:30:32.222Z,99.90
2017-09-14T18:33:02.010Z,99.90
2017-09-14T18:35:30.351Z,99.90
2017-09-14T18:37:58.631Z,99.90
2017-09-14T18:42:56.891Z,99.90
2017-09-14T18:45:26.020Z,99.90
2017-09-14T18:47:54.301Z,99.90
2017-09-14T18:50:23.271Z,99.90
2017-09-14T18:52:52.315Z,99.90
2017-09-14T18:55:21.364Z,99.90
2017-09-14T18:57:50.831Z,99.90
2017-09-14T19:00:19.106Z,99.90
2017-09-14T19:02:47.387Z,99.90
2017-09-14T19:05:15.712Z,99.90
2017-09-14T19:07:43.987Z,99.90
2017-09-14T19:10:12.283Z,99.90
2017-09-14T19:12:41.769Z,99.90
2017-09-14T19:17:40.374Z,99.90
2017-09-14T19:20:10.141Z,99.90
2017-09-14T19:22:39.935Z,99.90
2017-09-14T19:25:08.990Z,99.90
2017-09-14T19:27:38.046Z,99.90
2017-09-14T19:30:06.342Z,99.90
2017-09-14T19:32:34.636Z,99.90
2017-09-14T19:35:02.970Z,99.90
2017-09-14T19:37:31.254Z,99.90
2017-09-14T19:42:29.123Z,99.90
2017-09-14T19:44:58.920Z,99.90
2017-09-14T19:47:27.211Z,99.90
2017-09-14T19:49:55.563Z,99.90
2017-09-14T19:52:23.852Z,99.90
2017-09-14T19:54:52.139Z,99.90
2017-09-14T19:57:21.980Z,99.90
2017-09-14T20:04:49.756Z,99.90
2017-09-14T20:07:18.032Z,99.90
2017-09-14T20:09:46.315Z,99.90
2017-09-14T20:12:16.156Z,99.90
2017-09-14T20:17:14.348Z,99.90
2017-09-14T20:19:42.714Z,99.90
2017-09-14T20:22:11.011Z,99.90
2017-09-14T20:24:39.308Z,99.90
2017-09-14T20:27:07.655Z,99.90
2017-09-14T20:29:35.943Z,99.90
2017-09-14T20:32:05.010Z,99.90
2017-09-14T20:34:33.339Z,99.90
2017-09-14T20:37:01.632Z,99.90
2017-09-14T20:39:29.914Z,99.90
2017-09-14T20:44:28.899Z,99.90
2017-09-14T20:46:57.595Z,99.90
2017-09-14T20:51:55.891Z,99.90
2017-09-14T20:54:24.170Z,99.90
2017-09-14T20:56:52.507Z,99.90
2017-09-14T20:59:20.787Z,99.90
2017-09-14T21:01:49.079Z,99.90
2017-09-14T21:04:18.552Z,99.90
2017-09-14T21:06:46.839Z,99.90
2017-09-14T21:09:15.115Z,99.90
2017-09-14T21:11:43.472Z,99.90
2017-09-14T21:14:11.756Z,99.90
2017-09-14T21:19:09.634Z,99.90
2017-09-14T21:21:37.936Z,99.90
2017-09-14T21:24:07.411Z,99.90
2017-09-14T21:26:36.507Z,99.90
2017-09-14T21:31:34.707Z,99.90
2017-09-14T21:34:03.823Z,99.90
2017-09-14T21:36:32.107Z,99.90
2017-09-14T21:39:00.393Z,99.90
2017-09-14T21:41:30.247Z,99.90
2017-09-14T21:43:58.535Z,99.90
2017-09-14T21:46:26.852Z,99.90
2017-09-14T21:48:55.182Z,99.90
2017-09-14T21:51:24.616Z,99.90
2017-09-14T21:53:52.907Z,99.90
2017-09-14T21:56:21.231Z,99.90
2017-09-14T21:58:49.525Z,99.90
2017-09-14T22:03:47.782Z,99.90
2017-09-14T22:06:16.067Z,99.90
2017-09-14T22:08:45.119Z,99.90
2017-09-14T22:11:13.493Z,99.90
2017-09-14T22:16:11.719Z,99.90
2017-09-14T22:18:40.075Z,99.90
2017-09-14T22:21:08.387Z,99.90
2017-09-14T22:23:37.817Z,99.90
2017-09-14T22:28:36.127Z,99.90
2017-09-14T22:31:04.427Z,99.90
2017-09-14T22:36:03.738Z,99.90
2017-09-14T22:38:32.791Z,99.90
2017-09-14T22:41:01.129Z,99.90
2017-09-14T22:43:29.417Z,99.90
2017-09-14T22:48:28.054Z,99.90
2017-09-14T22:53:26.287Z,99.90
2017-09-14T22:55:54.619Z,99.90
2017-09-14T22:58:23.299Z,99.90
2017-09-14T23:00:51.592Z,99.90
2017-09-14T23:03:19.943Z,99.90
2017-09-14T23:05:48.235Z,99.90
2017-09-14T23:10:46.085Z,99.90
2017-09-14T23:13:14.364Z,99.90
2017-09-14T23:15:42.663Z,99.90
2017-09-14T23:18:11.013Z,99.90
2017-09-14T23:23:09.237Z,99.90
2017-09-14T23:25:37.616Z,99.90
2017-09-14T23:28:05.894Z,99.90
2017-09-14T23:30:34.984Z,99.90
2017-09-14T23:33:04.082Z,99.90
2017-09-14T23:38:02.662Z,99.90
2017-09-14T23:40:31.767Z,99.90
2017-09-14T23:43:00.052Z,99.90
2017-09-14T23:45:28.342Z,99.90
2017-09-14T23:50:27.728Z,99.90
2017-09-14T23:52:56.024Z,99.90
2017-09-14T23:55:24.750Z,99.90
2017-09-14T23:57:53.052Z,99.90
